Time;durP1;ratioP1;P1;durP2;ratioP2;P2;SDS_P1;SDS_P2;PMS_P1;PMS_P2;Temp;Humidity;BMP_temperature;BMP_pressure;BME280_temperature;BME280_humidity;BME280_pressure;Samples;Min_cycle;Max_cycle;Signal;HPM_P1;HPM_P2
2022/09/26 00:02:07;;;;;;;9.40;8.45;;;;;;;13.40;58.42;94854.91;5116080;28;20288;-70
2022/09/26 00:04:35;;;;;;;8.50;7.53;;;;;;;13.37;58.32;94863.97;5116125;28;20195;-70
2022/09/26 00:07:05;;;;;;;9.68;8.02;;;;;;;13.33;58.51;94861.16;5116703;28;20187;-70
2022/09/26 00:09:31;;;;;;;9.60;7.10;;;;;;;13.39;58.14;94856.84;5116012;28;20214;-70
2022/09/26 00:11:58;;;;;;;8.32;7.07;;;;;;;13.38;58.17;94858.03;5115595;28;20645;-71
2022/09/26 00:14:27;;;;;;;9.05;7.50;;;;;;;13.41;57.81;94851.75;5115734;28;20195;-70
2022/09/26 00:16:55;;;;;;;8.75;7.55;;;;;;;13.46;57.89;94854.19;5116018;28;20191;-70
2022/09/26 00:19:23;;;;;;;8.90;8.02;;;;;;;13.49;57.63;94841.56;5115513;28;20217;-70
2022/09/26 00:21:51;;;;;;;9.73;7.93;;;;;;;13.50;57.99;94840.38;5115618;28;20198;-70
2022/09/26 00:24:18;;;;;;;9.18;7.75;;;;;;;13.45;58.25;94841.50;5115437;28;20195;-70
2022/09/26 00:26:44;;;;;;;9.32;8.10;;;;;;;13.43;58.01;94843.06;5116350;28;20191;-70
2022/09/26 00:29:12;;;;;;;9.60;7.70;;;;;;;13.40;58.28;94847.38;5116287;28;20194;-70
2022/09/26 00:31:43;;;;;;;8.25;7.40;;;;;;;13.38;58.64;94843.41;5114940;28;20235;-70
2022/09/26 00:34:11;;;;;;;9.18;8.20;;;;;;;13.34;58.70;94846.13;5116077;28;20276;-70
2022/09/26 00:36:38;;;;;;;9.25;8.27;;;;;;;13.30;58.51;94836.97;5114875;28;20539;-70
2022/09/26 00:39:07;;;;;;;9.38;8.43;;;;;;;13.28;58.83;94839.31;5116087;28;20176;-70
2022/09/26 00:41:34;;;;;;;9.30;7.72;;;;;;;13.21;58.87;94833.63;5115105;28;20619;-70
2022/09/26 00:44:01;;;;;;;10.68;8.07;;;;;;;13.21;59.36;94839.97;5114969;28;20222;-70
2022/09/26 00:46:31;;;;;;;10.23;7.68;;;;;;;13.24;59.19;94828.19;5115060;28;20195;-70
2022/09/26 00:49:06;;;;;;;9.98;7.78;;;;;;;13.21;59.48;94831.66;5115640;28;20184;-70
2022/09/26 00:51:34;;;;;;;9.82;8.77;;;;;;;13.20;59.39;94827.31;5115344;28;20207;-71
2022/09/26 00:54:02;;;;;;;12.38;8.20;;;;;;;13.20;59.16;94823.75;5115682;28;20195;-71
2022/09/26 00:56:34;;;;;;;9.85;8.50;;;;;;;13.17;59.63;94821.72;5115029;28;20183;-71
2022/09/26 00:59:06;;;;;;;9.05;8.13;;;;;;;13.16;59.20;94823.69;5115789;28;20241;-71
2022/09/26 01:01:33;;;;;;;8.93;8.02;;;;;;;13.15;59.67;94824.88;5115670;28;20184;-71
2022/09/26 01:04:02;;;;;;;9.93;7.32;;;;;;;13.13;59.69;94832.75;5115430;28;20221;-71
2022/09/26 01:06:28;;;;;;;9.20;8.30;;;;;;;13.10;59.84;94836.25;5114934;28;20188;-71
2022/09/26 01:08:58;;;;;;;9.52;8.50;;;;;;;13.11;59.84;94831.50;5115656;28;20207;-71
2022/09/26 01:11:25;;;;;;;9.00;8.02;;;;;;;13.10;59.96;94827.97;5115961;28;20611;-71
2022/09/26 01:13:54;;;;;;;9.45;8.18;;;;;;;13.09;60.05;94836.66;5115718;28;20198;-71
2022/09/26 01:16:21;;;;;;;10.40;8.80;;;;;;;13.08;60.17;94832.28;5114823;28;20187;-71
2022/09/26 01:18:48;;;;;;;8.95;7.97;;;;;;;13.09;60.19;94826.38;5114828;28;20191;-71
2022/09/26 01:21:37;;;;;;;8.40;7.60;;;;;;;13.11;59.98;94824.03;5116069;28;20199;-71
2022/09/26 01:24:30;;;;;;;10.63;8.10;;;;;;;13.14;60.03;94820.50;5115511;28;20211;-71
2022/09/26 01:27:09;;;;;;;8.07;7.30;;;;;;;13.15;60.02;94822.09;5114648;28;20198;-71
2022/09/26 01:30:14;;;;;;;8.75;7.88;;;;;;;13.18;59.20;94818.59;5116806;28;20183;-71
2022/09/26 01:33:17;;;;;;;8.95;7.97;;;;;;;13.22;59.03;94816.66;5119862;28;20179;-71
2022/09/26 01:35:51;;;;;;;8.95;8.05;;;;;;;13.26;59.65;94818.72;5118395;28;20199;-71
2022/09/26 01:38:23;;;;;;;9.82;7.95;;;;;;;13.24;60.13;94827.38;5119676;28;20184;-71
2022/09/26 01:41:03;;;;;;;8.65;7.53;;;;;;;13.20;59.86;94830.06;5118680;28;20191;-71
2022/09/26 01:43:34;;;;;;;7.78;7.03;;;;;;;13.18;59.75;94826.06;5119529;28;20215;-71
2022/09/26 01:46:07;;;;;;;9.27;7.32;;;;;;;13.17;59.71;94822.50;5119501;28;20221;-71
2022/09/26 01:48:38;;;;;;;7.90;7.15;;;;;;;13.16;60.28;94812.63;5118656;28;20301;-71
2022/09/26 01:51:09;;;;;;;8.10;7.35;;;;;;;13.18;60.28;94813.06;5119037;28;20192;-71
2022/09/26 01:53:41;;;;;;;9.13;7.88;;;;;;;13.17;59.99;94814.22;5119693;28;20279;-71
2022/09/26 01:56:11;;;;;;;9.20;7.53;;;;;;;13.17;60.58;94819.75;5118443;28;20191;-71
2022/09/26 01:58:42;;;;;;;8.85;7.97;;;;;;;13.18;60.70;94806.69;5118051;28;20200;-71
2022/09/26 02:01:14;;;;;;;8.07;7.32;;;;;;;13.17;60.49;94802.34;5118198;28;20202;-71
2022/09/26 02:03:48;;;;;;;8.93;7.65;;;;;;;13.16;60.95;94797.97;5118776;28;20215;-71
2022/09/26 02:06:19;;;;;;;8.32;7.15;;;;;;;13.17;60.98;94791.25;5119156;28;20191;-71
2022/09/26 02:08:49;;;;;;;8.18;7.25;;;;;;;13.19;60.93;94802.78;5119028;28;20183;-71
2022/09/26 02:11:17;;;;;;;7.63;6.95;;;;;;;13.19;61.24;94802.78;5117802;28;20241;-71
2022/09/26 02:13:46;;;;;;;8.48;7.68;;;;;;;13.23;61.01;94804.44;5118191;28;20188;-71
2022/09/26 02:16:19;;;;;;;8.30;7.50;;;;;;;13.26;60.49;94805.66;5118245;28;20195;-71
2022/09/26 02:19:09;;;;;;;8.88;7.97;;;;;;;13.28;60.46;94796.97;5118888;28;20184;-71
2022/09/26 02:21:37;;;;;;;11.38;7.72;;;;;;;13.28;61.05;94791.44;5117928;28;20290;-71
2022/09/26 02:24:04;;;;;;;9.20;7.80;;;;;;;13.29;61.33;94793.00;5117526;28;20677;-71
2022/09/26 02:26:32;;;;;;;9.73;7.40;;;;;;;13.27;61.27;94787.88;5118642;28;20192;-71
2022/09/26 02:28:59;;;;;;;8.27;7.47;;;;;;;13.27;61.13;94776.00;5100821;28;20191;-71
2022/09/26 02:31:31;;;;;;;8.27;7.57;;;;;;;13.25;61.71;94779.13;5117429;28;20242;-71
2022/09/26 02:33:58;;;;;;;9.23;7.85;;;;;;;13.25;61.30;94770.81;5117813;28;20203;-71
2022/09/26 02:36:25;;;;;;;8.70;7.88;;;;;;;13.26;60.87;94771.63;5118675;28;20194;-71
2022/09/26 02:38:52;;;;;;;8.60;7.80;;;;;;;13.30;61.04;94775.25;5118498;27;20206;-71
2022/09/26 02:41:26;;;;;;;9.15;7.78;;;;;;;13.33;60.95;94772.50;5117658;28;20257;-71
2022/09/26 02:44:06;;;;;;;8.43;7.55;;;;;;;13.34;60.78;94768.56;5117727;28;20200;-71
2022/09/26 02:47:17;;;;;;;8.55;7.70;;;;;;;13.35;61.18;94767.38;5117519;28;20215;-71
2022/09/26 02:50:08;;;;;;;8.68;7.88;;;;;;;13.33;61.44;94763.41;5118030;28;20578;-71
2022/09/26 02:52:38;;;;;;;10.45;8.23;;;;;;;13.34;61.44;94763.03;5118616;28;20200;-70
2022/09/26 02:55:15;;;;;;;8.52;7.72;;;;;;;13.30;61.36;94773.25;5118128;28;20199;-71
2022/09/26 02:57:47;;;;;;;8.55;7.75;;;;;;;13.30;61.83;94753.88;5117826;28;20198;-71
2022/09/26 03:00:17;;;;;;;8.75;8.02;;;;;;;13.30;62.12;94753.09;5118196;28;20184;-70
2022/09/26 03:02:48;;;;;;;9.82;8.00;;;;;;;13.28;62.19;94758.19;5116709;28;20196;-70
2022/09/26 03:05:19;;;;;;;9.57;8.60;;;;;;;13.28;62.07;94750.69;5117915;28;20195;-70
2022/09/26 03:07:48;;;;;;;8.40;7.47;;;;;;;13.27;61.57;94740.00;5117478;28;20180;-70
2022/09/26 03:10:15;;;;;;;10.38;8.10;;;;;;;13.27;61.58;94749.09;5117276;28;20192;-70
2022/09/26 03:12:44;;;;;;;8.40;7.65;;;;;;;13.29;61.39;94748.69;5117045;28;20527;-70
2022/09/26 03:15:13;;;;;;;9.13;8.13;;;;;;;13.30;61.38;94748.34;5116706;28;20249;-70
2022/09/26 03:17:43;;;;;;;9.13;8.20;;;;;;;13.30;61.40;94756.66;5117188;28;20260;-70
2022/09/26 03:20:13;;;;;;;9.90;8.90;;;;;;;13.32;61.34;94737.66;5117555;28;20191;-70
2022/09/26 03:22:41;;;;;;;9.93;8.90;;;;;;;13.32;60.81;94743.19;5117576;28;20183;-70
2022/09/26 03:25:10;;;;;;;9.90;8.90;;;;;;;13.32;61.00;94745.19;5116586;28;20287;-70
2022/09/26 03:27:38;;;;;;;10.93;8.98;;;;;;;13.32;60.84;94743.19;5117541;28;20202;-70
2022/09/26 03:30:06;;;;;;;10.60;9.23;;;;;;;13.32;60.65;94734.09;5116392;28;20619;-70
2022/09/26 03:32:32;;;;;;;10.50;9.02;;;;;;;13.30;61.27;94742.78;5116439;28;20231;-70
2022/09/26 03:34:59;;;;;;;10.43;8.88;;;;;;;13.30;60.95;94728.16;5116396;28;20198;-70
2022/09/26 03:37:27;;;;;;;9.88;8.88;;;;;;;13.28;61.27;94722.19;5116987;28;20253;-71
2022/09/26 03:39:54;;;;;;;13.02;9.93;;;;;;;13.26;61.50;94721.78;5117345;28;20256;-71
2022/09/26 03:42:21;;;;;;;10.45;9.38;;;;;;;13.24;61.47;94733.22;5116165;28;20218;-71
2022/09/26 03:44:48;;;;;;;10.85;9.65;;;;;;;13.22;61.65;94733.59;5116838;28;20219;-71
2022/09/26 03:47:16;;;;;;;11.93;9.75;;;;;;;13.20;61.74;94735.13;5117105;28;20192;-71
2022/09/26 03:49:42;;;;;;;10.85;9.65;;;;;;;13.23;61.93;94732.44;5116707;28;20573;-71
2022/09/26 03:52:10;;;;;;;14.70;10.10;;;;;;;13.26;61.50;94732.88;5115636;28;20214;-71
2022/09/26 03:54:38;;;;;;;13.35;10.63;;;;;;;13.27;61.70;94738.00;5116138;28;20215;-71
2022/09/26 03:57:05;;;;;;;14.35;11.15;;;;;;;13.28;61.43;94736.03;5115766;28;20195;-71
2022/09/26 03:59:32;;;;;;;12.43;10.70;;;;;;;13.30;61.38;94730.94;5116507;28;20207;-71
2022/09/26 04:01:59;;;;;;;14.40;10.65;;;;;;;13.28;61.71;94734.06;5116251;28;20211;-71
2022/09/26 04:04:26;;;;;;;13.68;10.43;;;;;;;13.28;61.53;94724.97;5115639;28;20547;-70
2022/09/26 04:06:52;;;;;;;13.30;10.35;;;;;;;13.29;61.45;94726.53;5115906;28;20535;-71
2022/09/26 04:09:19;;;;;;;11.65;10.40;;;;;;;13.28;60.81;94730.50;5115809;28;20233;-71
2022/09/26 04:11:47;;;;;;;11.40;9.82;;;;;;;13.29;60.98;94735.66;5115897;28;20191;-71
2022/09/26 04:14:14;;;;;;;12.32;9.45;;;;;;;13.31;60.79;94729.75;5116651;28;20191;-71
2022/09/26 04:16:41;;;;;;;11.68;9.77;;;;;;;13.31;60.86;94738.84;5116613;28;20188;-71
2022/09/26 04:19:08;;;;;;;10.68;9.20;;;;;;;13.31;60.74;94732.50;5116427;28;20187;-70
2022/09/26 04:21:35;;;;;;;14.75;11.15;;;;;;;13.31;61.35;94738.84;5116490;28;20207;-70
2022/09/26 04:24:02;;;;;;;13.45;11.70;;;;;;;13.32;61.50;94742.41;5116345;28;20264;-70
2022/09/26 04:26:29;;;;;;;15.05;11.45;;;;;;;13.30;61.40;94745.56;5115702;28;20191;-70
2022/09/26 04:28:58;;;;;;;13.68;11.00;;;;;;;13.29;61.29;94743.16;5115518;28;20191;-70
2022/09/26 04:31:26;;;;;;;12.77;11.23;;;;;;;13.27;61.40;94734.44;5116052;28;20285;-71
2022/09/26 04:33:54;;;;;;;12.82;10.38;;;;;;;13.27;61.26;94748.28;5114974;28;20539;-71
2022/09/26 04:36:21;;;;;;;14.20;10.40;;;;;;;13.27;61.39;94746.31;5116495;28;20191;-71
2022/09/26 04:38:48;;;;;;;14.35;10.77;;;;;;;13.30;61.39;94739.25;5115001;28;20191;-71
2022/09/26 04:41:17;;;;;;;12.13;9.95;;;;;;;13.32;61.24;94734.88;5114979;28;20187;-71
2022/09/26 04:43:44;;;;;;;12.95;10.30;;;;;;;13.32;61.76;94734.09;5115134;28;20530;-71
2022/09/26 04:46:14;;;;;;;12.75;10.05;;;;;;;13.35;61.50;94738.88;5116228;28;20184;-71
2022/09/26 04:48:41;;;;;;;10.30;9.13;;;;;;;13.39;61.26;94732.19;5116030;28;20176;-71
2022/09/26 04:51:09;;;;;;;11.68;9.60;;;;;;;13.39;61.48;94736.94;5115810;28;20210;-71
2022/09/26 04:53:37;;;;;;;12.43;9.85;;;;;;;13.36;61.68;94729.38;5115046;28;20204;-71
2022/09/26 04:56:04;;;;;;;11.55;10.30;;;;;;;13.35;61.43;94734.13;5115321;28;20191;-71
2022/09/26 04:58:31;;;;;;;10.65;8.77;;;;;;;13.37;61.54;94733.78;5115640;28;20184;-71
2022/09/26 05:01:02;;;;;;;12.57;9.02;;;;;;;13.34;62.21;94727.00;5114789;28;20195;-71
2022/09/26 05:03:31;;;;;;;10.32;9.23;;;;;;;13.34;62.23;94727.00;5114783;28;20581;-69
2022/09/26 05:05:58;;;;;;;11.50;10.02;;;;;;;13.36;62.37;94723.84;5114785;28;20218;-69
2022/09/26 05:08:25;;;;;;;12.02;9.05;;;;;;;13.39;62.05;94723.09;5114912;28;20204;-69
2022/09/26 05:10:53;;;;;;;13.98;9.75;;;;;;;13.42;62.36;94725.91;5115404;28;20180;-69
2022/09/26 05:13:20;;;;;;;10.70;8.73;;;;;;;13.44;62.58;94733.84;5115093;28;20253;-69
2022/09/26 05:15:48;;;;;;;10.73;9.52;;;;;;;13.42;62.41;94733.44;5115759;28;20180;-70
2022/09/26 05:18:16;;;;;;;12.15;9.57;;;;;;;13.43;62.37;94719.19;5115442;28;20566;-69
2022/09/26 05:20:47;;;;;;;12.73;8.77;;;;;;;13.47;62.16;94713.69;5114780;28;20192;-69
2022/09/26 05:26:18;;;;;;;10.65;8.80;;;;;;;13.48;62.87;94720.84;5114670;28;20196;-70
2022/09/26 05:26:19;;;;;;;12.43;8.73;;;;;;;13.49;62.44;94716.88;5114704;28;20188;-70
2022/09/26 05:28:47;;;;;;;11.32;9.10;;;;;;;13.51;62.22;94713.72;5114711;28;20196;-70
2022/09/26 05:31:14;;;;;;;13.18;9.07;;;;;;;13.57;62.65;94720.53;5114379;28;20236;-70
2022/09/26 05:33:41;;;;;;;9.52;8.25;;;;;;;13.61;62.72;94704.72;5115917;28;20195;-70
2022/09/26 05:36:10;;;;;;;10.75;8.30;;;;;;;13.64;62.62;94695.66;5114725;28;20306;-70
2022/09/26 05:38:37;;;;;;;11.10;8.93;;;;;;;13.66;62.63;94693.31;5114626;28;20537;-70
2022/09/26 05:41:03;;;;;;;11.85;8.90;;;;;;;13.67;62.65;94694.88;5115445;28;20195;-70
2022/09/26 05:43:32;;;;;;;11.23;9.75;;;;;;;13.70;62.48;94685.81;5115433;28;20181;-70
2022/09/26 05:46:00;;;;;;;12.43;10.27;;;;;;;13.74;62.07;94694.97;5114590;28;20191;-70
2022/09/26 05:48:28;;;;;;;13.02;10.88;;;;;;;13.76;61.87;94700.91;5115469;28;20203;-69
2022/09/26 05:50:55;;;;;;;25.85;18.30;;;;;;;13.78;62.27;94703.31;5114172;28;20200;-70
2022/09/26 05:53:24;;;;;;;30.70;20.98;;;;;;;13.80;62.12;94707.28;5114691;28;20184;-70
2022/09/26 05:55:51;;;;;;;26.88;18.40;;;;;;;13.84;61.83;94710.91;5114442;28;20291;-70
2022/09/26 05:58:18;;;;;;;24.10;15.93;;;;;;;13.84;61.75;94710.91;5114535;28;20256;-71
2022/09/26 06:00:46;;;;;;;17.70;13.65;;;;;;;13.87;61.56;94718.44;5115211;28;20177;-70
2022/09/26 06:03:14;;;;;;;17.52;15.43;;;;;;;13.86;61.56;94719.59;5114260;28;20192;-70
2022/09/26 06:05:41;;;;;;;17.17;14.70;;;;;;;13.90;61.37;94720.44;5114379;28;20223;-70
2022/09/26 06:08:08;;;;;;;17.25;13.05;;;;;;;13.99;61.03;94705.47;5115123;28;20220;-70
2022/09/26 06:10:37;;;;;;;21.10;17.85;;;;;;;14.06;61.15;94713.84;5115628;28;20212;-70
2022/09/26 06:13:06;;;;;;;18.75;16.67;;;;;;;14.11;61.06;94721.81;5114276;28;20235;-70
2022/09/26 06:15:33;;;;;;;14.93;13.35;;;;;;;14.15;61.04;94720.66;5116038;28;20573;-70
2022/09/26 06:18:03;;;;;;;14.00;11.23;;;;;;;14.20;60.78;94714.75;5118267;28;20223;-70
2022/09/26 06:20:30;;;;;;;18.17;14.70;;;;;;;14.32;60.15;94715.63;5118002;28;20266;-70
2022/09/26 06:22:56;;;;;;;13.95;12.50;;;;;;;14.33;60.40;94731.88;5117943;28;20199;-70
2022/09/26 06:25:23;;;;;;;13.80;11.57;;;;;;;14.36;60.33;94728.34;5117480;28;20246;-70
2022/09/26 06:27:56;;;;;;;12.30;11.00;;;;;;;14.38;60.32;94719.66;5117845;28;20200;-70
2022/09/26 06:30:23;;;;;;;12.75;11.48;;;;;;;14.40;60.46;94728.34;5118344;28;20247;-70
2022/09/26 06:32:51;;;;;;;14.50;10.77;;;;;;;14.41;60.56;94724.41;5117653;28;20199;-70
2022/09/26 06:35:19;;;;;;;15.45;11.30;;;;;;;14.42;60.14;94726.81;5118040;28;20191;-70
2022/09/26 06:37:46;;;;;;;12.38;10.85;;;;;;;14.44;59.98;94718.06;5118813;28;20179;-70
2022/09/26 06:40:13;;;;;;;15.07;12.02;;;;;;;14.44;60.28;94710.53;5117784;28;20200;-70
2022/09/26 06:42:39;;;;;;;16.10;14.32;;;;;;;14.45;60.13;94692.75;5117612;28;20196;-71
2022/09/26 06:45:10;;;;;;;16.30;14.57;;;;;;;14.47;60.12;94695.13;5117321;28;20222;-71
2022/09/26 06:47:37;;;;;;;18.15;15.70;;;;;;;14.51;60.23;94703.50;5117698;28;20287;-71
2022/09/26 06:50:04;;;;;;;13.07;11.75;;;;;;;14.54;60.22;94702.72;5118354;28;20191;-71
2022/09/26 06:52:34;;;;;;;13.77;10.48;;;;;;;14.58;60.17;94709.09;5117399;28;20203;-70
2022/09/26 06:55:02;;;;;;;14.88;12.05;;;;;;;14.60;59.93;94707.53;5118061;28;20283;-71
2022/09/26 06:57:29;;;;;;;20.42;18.17;;;;;;;14.66;59.52;94705.16;5117830;28;20184;-71
2022/09/26 06:59:56;;;;;;;13.85;12.30;;;;;;;14.72;59.25;94714.72;5118068;28;20260;-72
2022/09/26 07:02:26;;;;;;;10.32;8.60;;;;;;;14.75;58.09;94708.41;5116858;28;20227;-71
2022/09/26 07:04:53;;;;;;;14.77;13.00;;;;;;;14.78;58.02;94702.06;5116676;28;20678;-71
2022/09/26 07:07:20;;;;;;;14.82;13.32;;;;;;;14.83;57.93;94703.69;5118047;28;20180;-71
2022/09/26 07:09:46;;;;;;;13.93;12.52;;;;;;;14.90;57.58;94712.84;5117601;28;20207;-71
2022/09/26 07:12:14;;;;;;;10.63;9.02;;;;;;;14.95;57.09;94711.66;5117140;28;20207;-71
2022/09/26 07:14:41;;;;;;;12.57;11.35;;;;;;;14.98;57.06;94719.22;5117845;28;20184;-71
2022/09/26 07:17:15;;;;;;;13.00;10.80;;;;;;;15.02;56.95;94711.69;5116678;28;20249;-71
2022/09/26 07:19:45;;;;;;;12.98;9.20;;;;;;;15.08;56.33;94712.91;5116744;28;20199;-71
2022/09/26 07:22:14;;;;;;;12.38;9.30;;;;;;;15.13;55.97;94715.31;5116455;28;20286;-71
2022/09/26 07:24:43;;;;;;;18.90;14.73;;;;;;;15.19;55.93;94714.94;5116679;28;20212;-71
2022/09/26 07:27:10;;;;;;;30.33;27.23;;;;;;;15.27;55.62;94699.88;5115597;28;20286;-71
2022/09/26 07:29:37;;;;;;;39.72;35.80;;;;;;;15.29;55.13;94712.22;5117563;28;20191;-70
2022/09/26 07:32:04;;;;;;;21.27;19.15;;;;;;;15.32;55.14;94718.94;5117346;28;20194;-70
2022/09/26 07:34:30;;;;;;;20.40;18.30;;;;;;;15.35;55.28;94715.38;5117004;28;20532;-70
2022/09/26 07:36:59;;;;;;;33.83;30.52;;;;;;;15.41;54.99;94708.28;5116151;28;20203;-70
2022/09/26 07:39:26;;;;;;;20.75;18.73;;;;;;;15.47;54.65;94705.88;5117770;28;20206;-69
2022/09/26 07:41:53;;;;;;;24.55;22.15;;;;;;;15.51;54.28;94713.06;5117466;28;20196;-70
2022/09/26 07:44:19;;;;;;;31.17;28.38;;;;;;;15.56;54.66;94704.34;5116999;28;20183;-69
2022/09/26 07:52:16;;;;;;;18.48;16.88;;;;;;;15.80;53.96;94694.47;5116192;28;20199;-69
2022/09/26 07:54:43;;;;;;;14.65;13.00;;;;;;;15.96;52.40;94688.53;5115821;28;20203;-69
2022/09/26 07:57:09;;;;;;;14.93;13.50;;;;;;;16.08;52.70;94692.91;5115994;28;20195;-69
2022/09/26 07:59:36;;;;;;;12.80;11.25;;;;;;;16.23;52.23;94677.00;5117094;28;20191;-69
2022/09/26 08:02:03;;;;;;;12.48;11.27;;;;;;;16.34;52.00;94670.25;5116291;28;20192;-70
2022/09/26 08:04:30;;;;;;;11.38;10.30;;;;;;;16.45;52.07;94659.09;5116763;28;20188;-70
2022/09/26 08:06:58;;;;;;;13.02;10.95;;;;;;;16.55;51.36;94661.03;5116774;28;20184;-69
2022/09/26 08:09:27;;;;;;;10.15;9.02;;;;;;;16.67;51.45;94665.41;5116802;28;20252;-70
2022/09/26 08:11:55;;;;;;;7.95;7.15;;;;;;;16.83;50.95;94662.19;5116690;28;20180;-69
2022/09/26 08:14:21;;;;;;;8.93;7.40;;;;;;;16.91;50.96;94658.19;5116794;27;20192;-69
2022/09/26 08:16:48;;;;;;;10.30;7.50;;;;;;;16.97;50.49;94647.44;5115550;28;20206;-69
2022/09/26 08:19:16;;;;;;;10.93;8.00;;;;;;;17.03;49.81;94651.34;5116669;28;20192;-69
2022/09/26 08:21:44;;;;;;;9.10;7.05;;;;;;;17.08;49.82;94646.16;5116328;28;20188;-69
2022/09/26 08:24:11;;;;;;;8.20;6.72;;;;;;;17.17;50.09;94636.56;5116167;28;20176;-70
2022/09/26 08:26:39;;;;;;;8.77;6.97;;;;;;;17.21;50.19;94635.38;5116322;28;20203;-69
2022/09/26 08:29:08;;;;;;;7.32;6.15;;;;;;;17.41;50.55;94630.06;5116316;28;20191;-69
2022/09/26 08:31:35;;;;;;;10.13;6.18;;;;;;;17.59;50.10;94635.53;5115334;28;20259;-69
2022/09/26 08:34:02;;;;;;;7.75;6.40;;;;;;;17.71;49.36;94645.41;5116487;28;20184;-69
2022/09/26 08:36:28;;;;;;;7.88;6.93;;;;;;;17.82;49.36;94640.56;5115408;28;20191;-69
2022/09/26 08:38:56;;;;;;;7.63;6.55;;;;;;;17.83;49.23;94638.56;5114759;28;20253;-69
2022/09/26 08:41:32;;;;;;;7.60;6.43;;;;;;;17.84;48.93;94643.75;5115252;28;20210;-69
2022/09/26 08:44:11;;;;;;;6.95;6.32;;;;;;;17.99;48.51;94641.66;5115157;28;20210;-69
2022/09/26 08:46:50;;;;;;;7.50;5.35;;;;;;;18.11;48.33;94620.81;5114864;28;20225;-69
2022/09/26 08:49:38;;;;;;;7.30;5.10;;;;;;;18.28;48.42;94623.44;5116289;28;20183;-69
2022/09/26 08:52:11;;;;;;;6.45;5.60;;;;;;;18.34;47.52;94617.41;5116081;28;20196;-69
2022/09/26 08:54:40;;;;;;;5.40;4.90;;;;;;;18.38;47.34;94618.97;5116033;28;20184;-69
2022/09/26 08:57:13;;;;;;;7.45;5.50;;;;;;;18.43;47.38;94626.09;5114666;28;20619;-71
2022/09/26 08:59:43;;;;;;;6.90;5.25;;;;;;;18.51;47.11;94622.03;5115695;28;20184;-69
2022/09/26 09:02:16;;;;;;;6.03;4.90;;;;;;;18.61;47.35;94625.91;5115419;28;20603;-69
2022/09/26 09:04:46;;;;;;;7.35;5.30;;;;;;;18.67;48.16;94621.47;5114942;28;20200;-70
2022/09/26 09:07:20;;;;;;;5.40;4.90;;;;;;;18.73;48.03;94614.22;5114844;28;20211;-69
2022/09/26 09:09:47;;;;;;;6.40;5.60;;;;;;;18.86;47.38;94609.69;5115461;28;20194;-70
2022/09/26 09:12:19;;;;;;;7.53;5.25;;;;;;;19.08;46.56;94601.03;5114625;28;20196;-70
2022/09/26 09:14:57;;;;;;;7.22;4.95;;;;;;;19.24;45.20;94587.22;5115425;28;20183;-70
2022/09/26 09:17:31;;;;;;;6.57;5.03;;;;;;;19.08;45.31;94592.66;5114945;28;20650;-70
2022/09/26 09:20:04;;;;;;;6.40;5.20;;;;;;;18.98;46.30;94597.16;5115616;28;20179;-70
2022/09/26 09:22:57;;;;;;;5.57;5.07;;;;;;;18.98;47.16;94594.38;5114508;28;20203;-69
2022/09/26 09:25:30;;;;;;;5.65;4.93;;;;;;;18.87;46.54;94585.34;5098188;28;20223;-69
2022/09/26 09:28:10;;;;;;;5.25;4.75;;;;;;;18.88;47.71;94596.09;5114866;28;20196;-69
2022/09/26 09:30:42;;;;;;;5.57;4.55;;;;;;;18.91;46.48;94586.06;5115585;28;20223;-70
2022/09/26 09:33:13;;;;;;;6.07;5.05;;;;;;;18.94;47.77;94586.03;5115579;28;20190;-70
2022/09/26 09:35:43;;;;;;;6.13;4.65;;;;;;;19.13;46.82;94578.22;5113971;28;20203;-70
2022/09/26 09:38:14;;;;;;;5.95;4.70;;;;;;;19.10;46.71;94567.84;5115174;28;20195;-71
2022/09/26 09:40:43;;;;;;;5.18;4.68;;;;;;;19.32;47.01;94562.75;5114472;28;20534;-69
2022/09/26 09:43:14;;;;;;;5.35;4.25;;;;;;;19.58;46.10;94556.38;5115456;28;20191;-69
2022/09/26 09:45:47;;;;;;;7.82;4.30;;;;;;;19.65;45.42;94567.50;5114212;28;20212;-69
2022/09/26 09:48:15;;;;;;;5.18;4.70;;;;;;;19.64;45.65;94562.31;5115456;28;20188;-69
2022/09/26 09:50:50;;;;;;;5.63;4.88;;;;;;;19.85;45.36;94564.75;5115968;28;20200;-69
2022/09/26 09:53:28;;;;;;;6.65;4.90;;;;;;;20.15;45.90;94561.06;5118388;28;20217;-69
2022/09/26 09:56:03;;;;;;;5.53;4.57;;;;;;;20.36;44.10;94545.88;5119128;28;20180;-69
2022/09/26 09:58:57;;;;;;;5.57;4.80;;;;;;;20.38;44.33;94534.25;5119206;28;20206;-69
2022/09/26 10:01:28;;;;;;;6.05;4.88;;;;;;;20.43;45.05;94528.91;5119273;28;20195;-69
2022/09/26 10:04:03;;;;;;;6.88;5.22;;;;;;;20.39;45.64;94531.00;5117921;28;20214;-68
2022/09/26 10:06:31;;;;;;;7.70;6.20;;;;;;;20.44;44.38;94527.72;5118263;28;20207;-69
2022/09/26 10:09:02;;;;;;;7.95;6.28;;;;;;;20.57;43.36;94539.09;5118258;28;20205;-69
2022/09/26 10:11:30;;;;;;;10.05;5.65;;;;;;;20.77;43.11;94541.09;5119058;28;20241;-68
2022/09/26 10:14:01;;;;;;;5.70;5.07;;;;;;;20.81;43.39;94545.44;5118664;28;20603;-69
2022/09/26 10:16:32;;;;;;;8.95;8.05;;;;;;;20.75;43.73;94538.75;5119077;28;20188;-68
2022/09/26 10:19:05;;;;;;;9.50;8.30;;;;;;;20.70;43.49;94541.25;5118899;28;20188;-68
2022/09/26 10:21:34;;;;;;;5.53;4.97;;;;;;;20.60;44.32;94541.03;5117996;28;20298;-69
2022/09/26 10:24:02;;;;;;;7.40;6.65;;;;;;;20.50;43.59;94536.44;5118824;28;20199;-69
2022/09/26 10:26:33;;;;;;;7.75;6.95;;;;;;;20.33;43.90;94532.72;5117853;28;20667;-69
2022/09/26 10:29:06;;;;;;;7.80;7.00;;;;;;;20.31;44.01;94520.38;5117800;28;20580;-69
2022/09/26 10:31:36;;;;;;;6.53;5.47;;;;;;;20.41;44.42;94525.78;5118062;28;20326;-69
2022/09/26 10:34:04;;;;;;;9.07;7.28;;;;;;;20.63;44.27;94525.38;5117753;28;20626;-69
2022/09/26 10:36:33;;;;;;;6.55;5.10;;;;;;;20.74;43.53;94523.16;5117838;28;20199;-69
2022/09/26 10:41:48;;;;;;;5.50;4.38;;;;;;;20.79;44.00;94505.03;5118216;28;20172;-68
2022/09/26 10:44:24;;;;;;;5.88;5.07;;;;;;;20.91;43.50;94496.78;5118171;28;20202;-69
2022/09/26 10:46:55;;;;;;;8.85;5.00;;;;;;;20.92;43.17;94489.16;5117337;28;20211;-68
2022/09/26 10:49:24;;;;;;;8.70;5.60;;;;;;;20.85;43.04;94486.50;5118819;28;20184;-69
2022/09/26 10:51:59;;;;;;;5.07;4.57;;;;;;;20.88;43.48;94482.84;5117349;28;20200;-71
2022/09/26 10:54:36;;;;;;;5.03;4.30;;;;;;;21.09;43.29;94484.34;5117306;28;20191;-72
2022/09/26 10:57:08;;;;;;;8.25;5.22;;;;;;;21.14;42.98;94492.25;5116993;28;20204;-73
2022/09/26 10:59:39;;;;;;;5.50;5.00;;;;;;;21.11;42.97;94482.69;5117401;28;20196;-73
2022/09/26 11:02:15;;;;;;;4.80;4.40;;;;;;;21.05;44.00;94484.44;5118114;28;20198;-73
2022/09/26 11:07:34;;;;;;;6.25;4.47;;;;;;;20.99;42.76;94469.38;5117705;28;20219;-72
2022/09/26 11:10:04;;;;;;;4.60;3.95;;;;;;;20.98;43.28;94473.38;5117537;28;20192;-66
2022/09/26 11:12:38;;;;;;;4.28;3.88;;;;;;;20.98;43.99;94467.75;5117225;28;20249;-70
2022/09/26 11:15:07;;;;;;;4.60;3.85;;;;;;;21.04;43.27;94462.44;5116951;28;20211;-68
2022/09/26 11:17:46;;;;;;;5.05;3.90;;;;;;;21.06;44.12;94463.59;5117112;28;20184;-71
2022/09/26 11:20:35;;;;;;;4.75;3.90;;;;;;;21.12;43.04;94473.06;5117818;28;20269;-72
2022/09/26 11:23:06;;;;;;;3.47;3.20;;;;;;;21.16;43.84;94462.53;5116824;28;20192;-73
2022/09/26 11:25:41;;;;;;;3.67;3.35;;;;;;;21.32;42.41;94455.38;5116510;28;20631;-73
2022/09/26 11:28:12;;;;;;;6.13;3.28;;;;;;;21.36;42.73;94462.50;5117794;28;20206;-73
2022/09/26 11:30:41;;;;;;;4.97;3.05;;;;;;;21.43;42.64;94455.94;5117508;28;20255;-73
2022/09/26 11:33:12;;;;;;;3.42;3.20;;;;;;;21.53;42.51;94452.09;5117225;28;20620;-73
2022/09/26 11:35:48;;;;;;;4.00;3.30;;;;;;;21.57;41.94;94452.00;5116660;28;20188;-73
2022/09/26 11:38:27;;;;;;;3.92;2.95;;;;;;;21.57;43.42;94449.19;5117798;28;20207;-73
2022/09/26 11:41:07;;;;;;;3.70;3.28;;;;;;;21.57;42.30;94441.56;5117536;28;20192;-68
2022/09/26 11:43:52;;;;;;;3.70;3.40;;;;;;;21.56;41.40;94437.16;5117367;28;20172;-68
2022/09/26 11:46:31;;;;;;;3.88;2.90;;;;;;;21.59;41.67;94430.69;5116974;28;20199;-68
2022/09/26 11:49:16;;;;;;;3.35;3.05;;;;;;;21.61;41.58;94424.66;5117222;28;20218;-68
2022/09/26 11:51:59;;;;;;;3.10;2.80;;;;;;;21.66;41.87;94437.34;5116193;28;20616;-68
2022/09/26 11:54:38;;;;;;;3.10;2.80;;;;;;;21.64;41.63;94434.97;5117089;28;20179;-67